(°C)
(°C)
-0°
-1°
ЗСЗ
ЗСЗ
СЗ
СЗ
СЗ
СЗ
ЗСЗ
(km/h)
5-17
4-14
4-11
3-9
3-11
4-11
4-10
(mm)
0
0
0
0
0
0
0
(%)
1
0
0
0
0
0
0

Издигане на слънцето

/ 3.4°
sun-icon
UV 3
03:18
20:00
Последна четвърт на луната (266°)
01:30
09:41

METAR за 55.61°С 49.28°И (UWKD)

Час Условия Температура/
Точка на оросяване
Вятър Видимост Времето Облаци Налягане Промяна Сурови
VFR 6°C / -2°C 10º 8kt >10km - Clouds and Visibility OK 1000 No Significant change UWKD 221600Z 01004MPS CAVOK 06/M02 Q1000 R29/CLRD70 NOSIG RMK QFE739/0986
VFR 6°C / -3°C 360º 8kt >10km - Clouds and Visibility OK 1000 No Significant change UWKD 221530Z 36004MPS CAVOK 06/M03 Q1000 R29/70D NOSIG RMK QFE739/0985
VFR 7°C / -2°C 10º 8kt >10km - Clouds and Visibility OK 1000 No Significant change UWKD 221500Z 01004MPS CAVOK 07/M02 Q1000 R29/70D NOSIG RMK QFE739/0986
VFR 7°C / -3°C 10º 10kt >10km - Clouds and Visibility OK 1000 No Significant change UWKD 221430Z 01005MPS CAVOK 07/M03 Q1000 R29/CLRD70 NOSIG RMK QFE739/0986
VFR 7°C / -3°C 350º variable 320º to 050º 6kt >10km - Clouds and Visibility OK 1000 No Significant change UWKD 221400Z 35003MPS 320V050 CAVOK 07/M03 Q1000 R29/CLRD70 NOSIG RMK QFE739/0985
VFR 7°C / -3°C 340º 10kt >10km - Clouds and Visibility OK 1000 No Significant change UWKD 221330Z 34005MPS CAVOK 07/M03 Q1000 R29/CLRD70 NOSIG RMK QFE739/0986
VFR 8°C / -4°C 320º variable 290º to 360º 10kt >10km - Clouds and Visibility OK 1000 No Significant change UWKD 221300Z 32005MPS 290V360 CAVOK 08/M04 Q1000 R29/CLRD70 NOSIG RMK QFE739/0985
VFR 8°C / -3°C 320º 10kt >10km - Clouds and Visibility OK 1000 No Significant change UWKD 221230Z 32005MPS CAVOK 08/M03 Q1000 R29/70D NOSIG RMK QFE739/0986
VFR 8°C / -3°C 320º variable 290º to 350º 8kt >10km - Clouds and Visibility OK 1000 No Significant change UWKD 221200Z 32004MPS 290V350 CAVOK 08/M03 Q1000 R29/CLRD70 NOSIG RMK QFE739/0986
VFR 7°C / -2°C 330º 14kt >10km - Broken Clouds 4300ft 1000 No Significant change UWKD 221130Z 33007MPS 9999 BKN043 07/M02 Q1000 R29/CLRD70 NOSIG RMK QFE739/0986
VFR 7°C / -3°C 330º 12kt >10km - Broken Clouds 4300ft 1000 No Significant change UWKD 221100Z 33006MPS 9999 BKN043 07/M03 Q1000 R29/CLRD70 NOSIG RMK QFE739/0986
VFR 8°C / -3°C 330º variable 300º to 010º 10kt >10km - Broken Clouds 4300ft 1000 No Significant change UWKD 221030Z 33005MPS 300V010 9999 BKN043 08/M03 Q1000 R29/CLRD70 NOSIG RMK QFE739/0986
VFR 7°C / -2°C 300º variable 270º to 350º 8kt >10km - Broken Clouds 4000ft 1000 No Significant change UWKD 221000Z 30004MPS 270V350 9999 BKN040 07/M02 Q1000 R29/70D NOSIG RMK QFE739/0986
VFR 6°C / -2°C 320º variable 300º to 010º 10kt >10km - Broken Clouds 4000ft 1001 No Significant change UWKD 220930Z 32005MPS 300V010 9999 BKN040 06/M02 Q1001 R29/70D NOSIG RMK QFE739/0986
VFR 6°C / -1°C 340º 10kt >10km - Broken Clouds 3600ft 1000 No Significant change UWKD 220900Z 34005MPS 9999 BKN036 06/M01 Q1000 R29/70D NOSIG RMK QFE739/0986
VFR 6°C / -3°C 310º 6kt >10km - Broken Clouds 4000ft 1000 No Significant change UWKD 220830Z 31003MPS 9999 BKN040 06/M03 Q1000 R29/CLRD70 NOSIG RMK QFE739/0986
VFR 6°C / -1°C 340º variable 290º to 020º 6kt >10km - Broken Clouds 3300ft 1001 No Significant change UWKD 220800Z 34003MPS 290V020 9999 BKN033 06/M01 Q1001 R29/70D NOSIG RMK QFE739/0986
VFR 6°C / -1°C 330º variable 280º to 020º 10kt >10km - Broken Clouds 3200ft 1001 No Significant change UWKD 220730Z 33005MPS 280V020 9999 BKN032 06/M01 Q1001 R29/70D NOSIG RMK QFE739/0986
VFR 6°C / -1°C 300º 8kt >10km - Broken Clouds 3200ft 1001 No Significant change UWKD 220700Z 30004MPS 9999 BKN032 06/M01 Q1001 R29/70D NOSIG RMK QFE739/0986
VFR 6°C / -1°C 310º variable 270º to 350º 8kt. Wind Shear present on Runway 29. >10km - Broken Clouds 3300ft 1001 No Significant change UWKD 220630Z 31004MPS 270V350 9999 BKN033 06/M01 Q1001 WS R29 R29/70D NOSIG RMK QFE740/0986
MVFR 6°C / 0°C 330º variable 300º to 020º 8kt. Wind Shear present on Runway 29. >10km - Broken Clouds 2800ft 1001 No Significant change UWKD 220600Z 33004MPS 300V020 9999 BKN028 06/M00 Q1001 WS R29 R29/CLRD70 NOSIG RMK QFE740/0986
MVFR 6°C / 0°C 330º variable 290º to 010º 10kt >10km - Broken Clouds 2800ft 1001 No Significant change UWKD 220530Z 33005MPS 290V010 9999 BKN028 06/M00 Q1001 R29/CLRD70 NOSIG RMK QFE740/0986
MVFR 5°C / 1°C 320º variable 280º to 350º 10kt >10km - Broken Clouds 2400ft 1001 No Significant change UWKD 220500Z 32005MPS 280V350 9999 BKN024 05/01 Q1001 R29/CLRD70 NOSIG RMK QFE740/0987
MVFR 5°C / 1°C 340º 10kt >10km - Broken Clouds 2600ft 1002 No Significant change UWKD 220430Z 34005MPS 9999 BKN026 05/01 Q1002 R29/CLRD70 NOSIG RMK QFE740/0987

VFR

6°C / -2°C

[Още]
Вятър 10º 8kt
Видимост >10km
Времето -
Облаци Clouds and Visibility OK
Налягане 1000
Промяна No Significant change
Сурови UWKD 221600Z 01004MPS CAVOK 06/M02 Q1000 R29/CLRD70 NOSIG RMK QFE739/0986

VFR

6°C / -3°C

[Още]
Вятър 360º 8kt
Видимост >10km
Времето -
Облаци Clouds and Visibility OK
Налягане 1000
Промяна No Significant change
Сурови UWKD 221530Z 36004MPS CAVOK 06/M03 Q1000 R29/70D NOSIG RMK QFE739/0985

VFR

7°C / -2°C

[Още]
Вятър 10º 8kt
Видимост >10km
Времето -
Облаци Clouds and Visibility OK
Налягане 1000
Промяна No Significant change
Сурови UWKD 221500Z 01004MPS CAVOK 07/M02 Q1000 R29/70D NOSIG RMK QFE739/0986

VFR

7°C / -3°C

[Още]
Вятър 10º 10kt
Видимост >10km
Времето -
Облаци Clouds and Visibility OK
Налягане 1000
Промяна No Significant change
Сурови UWKD 221430Z 01005MPS CAVOK 07/M03 Q1000 R29/CLRD70 NOSIG RMK QFE739/0986

VFR

7°C / -3°C

[Още]
Вятър 350º variable 320º to 050º 6kt
Видимост >10km
Времето -
Облаци Clouds and Visibility OK
Налягане 1000
Промяна No Significant change
Сурови UWKD 221400Z 35003MPS 320V050 CAVOK 07/M03 Q1000 R29/CLRD70 NOSIG RMK QFE739/0985

VFR

7°C / -3°C

[Още]
Вятър 340º 10kt
Видимост >10km
Времето -
Облаци Clouds and Visibility OK
Налягане 1000
Промяна No Significant change
Сурови UWKD 221330Z 34005MPS CAVOK 07/M03 Q1000 R29/CLRD70 NOSIG RMK QFE739/0986

VFR

8°C / -4°C

[Още]
Вятър 320º variable 290º to 360º 10kt
Видимост >10km
Времето -
Облаци Clouds and Visibility OK
Налягане 1000
Промяна No Significant change
Сурови UWKD 221300Z 32005MPS 290V360 CAVOK 08/M04 Q1000 R29/CLRD70 NOSIG RMK QFE739/0985

VFR

8°C / -3°C

[Още]
Вятър 320º 10kt
Видимост >10km
Времето -
Облаци Clouds and Visibility OK
Налягане 1000
Промяна No Significant change
Сурови UWKD 221230Z 32005MPS CAVOK 08/M03 Q1000 R29/70D NOSIG RMK QFE739/0986

VFR

8°C / -3°C

[Още]
Вятър 320º variable 290º to 350º 8kt
Видимост >10km
Времето -
Облаци Clouds and Visibility OK
Налягане 1000
Промяна No Significant change
Сурови UWKD 221200Z 32004MPS 290V350 CAVOK 08/M03 Q1000 R29/CLRD70 NOSIG RMK QFE739/0986

VFR

7°C / -2°C

[Още]
Вятър 330º 14kt
Видимост >10km
Времето -
Облаци Broken Clouds 4300ft
Налягане 1000
Промяна No Significant change
Сурови UWKD 221130Z 33007MPS 9999 BKN043 07/M02 Q1000 R29/CLRD70 NOSIG RMK QFE739/0986

VFR

7°C / -3°C

[Още]
Вятър 330º 12kt
Видимост >10km
Времето -
Облаци Broken Clouds 4300ft
Налягане 1000
Промяна No Significant change
Сурови UWKD 221100Z 33006MPS 9999 BKN043 07/M03 Q1000 R29/CLRD70 NOSIG RMK QFE739/0986

VFR

8°C / -3°C

[Още]
Вятър 330º variable 300º to 010º 10kt
Видимост >10km
Времето -
Облаци Broken Clouds 4300ft
Налягане 1000
Промяна No Significant change
Сурови UWKD 221030Z 33005MPS 300V010 9999 BKN043 08/M03 Q1000 R29/CLRD70 NOSIG RMK QFE739/0986

VFR

7°C / -2°C

[Още]
Вятър 300º variable 270º to 350º 8kt
Видимост >10km
Времето -
Облаци Broken Clouds 4000ft
Налягане 1000
Промяна No Significant change
Сурови UWKD 221000Z 30004MPS 270V350 9999 BKN040 07/M02 Q1000 R29/70D NOSIG RMK QFE739/0986

VFR

6°C / -2°C

[Още]
Вятър 320º variable 300º to 010º 10kt
Видимост >10km
Времето -
Облаци Broken Clouds 4000ft
Налягане 1001
Промяна No Significant change
Сурови UWKD 220930Z 32005MPS 300V010 9999 BKN040 06/M02 Q1001 R29/70D NOSIG RMK QFE739/0986

VFR

6°C / -1°C

[Още]
Вятър 340º 10kt
Видимост >10km
Времето -
Облаци Broken Clouds 3600ft
Налягане 1000
Промяна No Significant change
Сурови UWKD 220900Z 34005MPS 9999 BKN036 06/M01 Q1000 R29/70D NOSIG RMK QFE739/0986

VFR

6°C / -3°C

[Още]
Вятър 310º 6kt
Видимост >10km
Времето -
Облаци Broken Clouds 4000ft
Налягане 1000
Промяна No Significant change
Сурови UWKD 220830Z 31003MPS 9999 BKN040 06/M03 Q1000 R29/CLRD70 NOSIG RMK QFE739/0986

VFR

6°C / -1°C

[Още]
Вятър 340º variable 290º to 020º 6kt
Видимост >10km
Времето -
Облаци Broken Clouds 3300ft
Налягане 1001
Промяна No Significant change
Сурови UWKD 220800Z 34003MPS 290V020 9999 BKN033 06/M01 Q1001 R29/70D NOSIG RMK QFE739/0986

VFR

6°C / -1°C

[Още]
Вятър 330º variable 280º to 020º 10kt
Видимост >10km
Времето -
Облаци Broken Clouds 3200ft
Налягане 1001
Промяна No Significant change
Сурови UWKD 220730Z 33005MPS 280V020 9999 BKN032 06/M01 Q1001 R29/70D NOSIG RMK QFE739/0986

VFR

6°C / -1°C

[Още]
Вятър 300º 8kt
Видимост >10km
Времето -
Облаци Broken Clouds 3200ft
Налягане 1001
Промяна No Significant change
Сурови UWKD 220700Z 30004MPS 9999 BKN032 06/M01 Q1001 R29/70D NOSIG RMK QFE739/0986

VFR

6°C / -1°C

[Още]
Вятър 310º variable 270º to 350º 8kt. Wind Shear present on Runway 29.
Видимост >10km
Времето -
Облаци Broken Clouds 3300ft
Налягане 1001
Промяна No Significant change
Сурови UWKD 220630Z 31004MPS 270V350 9999 BKN033 06/M01 Q1001 WS R29 R29/70D NOSIG RMK QFE740/0986

MVFR

6°C / 0°C

[Още]
Вятър 330º variable 300º to 020º 8kt. Wind Shear present on Runway 29.
Видимост >10km
Времето -
Облаци Broken Clouds 2800ft
Налягане 1001
Промяна No Significant change
Сурови UWKD 220600Z 33004MPS 300V020 9999 BKN028 06/M00 Q1001 WS R29 R29/CLRD70 NOSIG RMK QFE740/0986

MVFR

6°C / 0°C

[Още]
Вятър 330º variable 290º to 010º 10kt
Видимост >10km
Времето -
Облаци Broken Clouds 2800ft
Налягане 1001
Промяна No Significant change
Сурови UWKD 220530Z 33005MPS 290V010 9999 BKN028 06/M00 Q1001 R29/CLRD70 NOSIG RMK QFE740/0986

MVFR

5°C / 1°C

[Още]
Вятър 320º variable 280º to 350º 10kt
Видимост >10km
Времето -
Облаци Broken Clouds 2400ft
Налягане 1001
Промяна No Significant change
Сурови UWKD 220500Z 32005MPS 280V350 9999 BKN024 05/01 Q1001 R29/CLRD70 NOSIG RMK QFE740/0987

MVFR

5°C / 1°C

[Още]
Вятър 340º 10kt
Видимост >10km
Времето -
Облаци Broken Clouds 2600ft
Налягане 1002
Промяна No Significant change
Сурови UWKD 220430Z 34005MPS 9999 BKN026 05/01 Q1002 R29/CLRD70 NOSIG RMK QFE740/0987

TAF за 55.61°С 49.28°И (UWKD)

From till


Maximum Temperature 9ºC on . Minimum Temperature 1ºC on .
From till Wind 330º 10kt. Gust 23kt. Visibility 10km or more. Broken Clouds 2000ft.
Temporarly from till Light Showers Rain . Broken Clouds 1600ft.
Becoming from till Wind 350º 6kt. Visibility 10km or more. Broken Clouds 2000ft.

Сурови: TAF UWKD 221400Z 2215/2315 33005G12MPS 9999 BKN020 TX09/2312Z TN01/2301Z TEMPO 2215/2218 -SHRA BKN016CB BECMG 2218/2220 35003MPS

Радар и валежи в момента за 55.61°С 49.28°И

Ситен дъжд
Лек
Умерен
Тежък
Много тежък
Аве

Маркерът за локация обозначава 55.61°С 49.28°И. Анимацията показва Радара за валежи за последния час, както и прогноза за 1h. Дъждът или лекият сняг може да са невидими за радара. Интензивността на валежите е обозначена с цветни кодове, вариращи от светлосиньо до оранжево.

Актуални сателитни и дъждовни снимки за 55.61°С 49.28°И

Маркерът за локация е поставен върху 55.61°С 49.28°И. [Още]

Сателитното изображение в реално време съчетава видимата светлина през деня с инфрачервеното лъчение през нощта. През нощта изображението не е тъмно, тъй като инфрачервеното лъчение може да открива температурни разлики. За съжаление ниските облаци и мъглата са трудни за разграничаване от температурите на земята и затова могат да бъдат почти невидими през нощта. Сателитните изображения на Meteosat за Европа се актуализират в реално време на всеки 5 минути. Изображенията GOES-16/GOES-17 (Северна и Южна Америка) и Химавари (Азия) се актуализират на всеки 10 минути.

Всички права запазени 2022 EUMETSAT / meteoblue. / Всички права запазени 2022 meteoblue

Върнете се в началото